Time;durP1;ratioP1;P1;durP2;ratioP2;P2;SDS_P1;SDS_P2;PMS_P1;PMS_P2;Temp;Humidity;BMP_temperature;BMP_pressure;BME280_temperature;BME280_humidity;BME280_pressure;Samples;Min_cycle;Max_cycle;Signal;HPM_P1;HPM_P2
2022/07/25 00:00:31;;;;;;;7.20;5.93;;;27.20;1.00;;;;;;5134282;28;20177;-83
2022/07/25 00:02:57;;;;;;;6.95;6.25;;;27.10;1.00;;;;;;5134053;28;20182;-82
2022/07/25 00:05:23;;;;;;;7.10;5.85;;;27.00;1.00;;;;;;5134988;28;20165;-83
2022/07/25 00:07:49;;;;;;;7.15;6.18;;;26.90;1.00;;;;;;5134743;28;20234;-83
2022/07/25 00:10:15;;;;;;;11.32;5.95;;;26.90;99.90;;;;;;5115497;28;20595;-82
2022/07/25 00:12:41;;;;;;;9.67;6.00;;;27.00;99.90;;;;;;5134657;28;20163;-83
2022/07/25 00:15:07;;;;;;;10.18;6.40;;;27.10;1.00;;;;;;5134668;28;20515;-82
2022/07/25 00:17:33;;;;;;;8.40;6.40;;;27.00;1.00;;;;;;5118276;27;20170;-83
2022/07/25 00:20:00;;;;;;;6.57;5.97;;;27.00;1.00;;;;;;5119413;27;20719;-82
2022/07/25 00:22:25;;;;;;;9.33;5.83;;;26.90;99.90;;;;;;5137623;27;20160;-84
2022/07/25 00:24:51;;;;;;;9.43;5.70;;;26.80;99.90;;;;;;5138677;27;20163;-83
2022/07/25 00:27:17;;;;;;;6.10;5.50;;;26.70;1.00;;;;;;5119432;27;20179;-83
2022/07/25 00:29:42;;;;;;;8.03;5.50;;;26.60;22.90;;;;;;5138343;27;20187;-84
2022/07/25 00:32:09;;;;;;;10.93;5.53;;;26.60;99.90;;;;;;5119575;27;20619;-83
2022/07/25 00:34:35;;;;;;;6.53;5.47;;;26.70;99.90;;;;;;5139173;27;20226;-83
2022/07/25 00:37:00;;;;;;;5.60;5.00;;;26.60;1.00;;;;;;5142893;27;20249;-83
2022/07/25 00:39:26;;;;;;;5.53;4.97;;;26.60;99.90;;;;;;5155040;27;20200;-82
2022/07/25 00:41:55;;;;;;;7.97;5.23;;;26.60;99.90;;;;;;5143963;27;20629;-83
2022/07/25 00:44:26;;;;;;;5.77;5.17;;;26.60;1.00;;;;;;5140238;27;20208;-82
2022/07/25 00:46:53;;;;;;;6.13;5.00;;;26.50;1.00;;;;;;5137671;27;20197;-82
2022/07/25 00:49:20;;;;;;;5.30;4.70;;;26.50;1.00;;;;;;5119527;27;20254;-82
2022/07/25 00:51:46;;;;;;;6.20;4.93;;;26.60;99.90;;;;;;5137529;27;20215;-82
2022/07/25 00:54:13;;;;;;;7.13;4.73;;;26.50;1.00;;;;;;5139701;27;20170;-82
2022/07/25 00:56:39;;;;;;;8.37;4.90;;;26.50;37.50;;;;;;5149167;27;20208;-82
2022/07/25 00:59:05;;;;;;;7.00;5.27;;;26.50;99.90;;;;;;5136093;27;20185;-82
2022/07/25 01:01:31;;;;;;;8.77;5.40;;;26.50;99.90;;;;;;5162222;27;20243;-82
2022/07/25 01:03:57;;;;;;;7.77;5.20;;;26.40;99.90;;;;;;5144389;27;20192;-81
2022/07/25 01:06:24;;;;;;;6.37;5.30;;;26.40;99.90;;;;;;5161681;27;20192;-81
2022/07/25 01:08:51;;;;;;;7.13;5.07;;;26.50;1.00;;;;;;5161615;27;20160;-82
2022/07/25 01:11:18;;;;;;;5.93;5.10;;;26.50;99.90;;;;;;5161662;27;20190;-80
2022/07/25 01:13:44;;;;;;;8.82;5.05;;;26.60;99.90;;;;;;5133414;27;20171;-81
2022/07/25 01:16:11;;;;;;;7.23;5.20;;;26.60;99.90;;;;;;5125491;27;20185;-80
2022/07/25 01:18:39;;;;;;;5.70;5.10;;;26.50;1.00;;;;;;5140020;27;20176;-82
2022/07/25 01:21:06;;;;;;;5.93;5.23;;;26.50;99.90;;;;;;5161052;27;20157;-81
2022/07/25 01:23:31;;;;;;;5.80;5.20;;;26.50;99.90;;;;;;5143745;27;20173;-80
2022/07/25 01:25:57;;;;;;;5.37;4.70;;;26.40;1.00;;;;;;5158031;27;20179;-82
2022/07/25 01:28:23;;;;;;;6.72;5.00;;;26.50;1.00;;;;;;5159231;27;20179;-81
2022/07/25 01:30:52;;;;;;;8.67;5.00;;;26.40;1.00;;;;;;5143549;27;20237;-82
2022/07/25 01:33:36;;;;;;;6.67;5.07;;;26.50;1.00;;;;;;5133372;27;20170;-81
2022/07/25 01:36:06;;;;;;;6.43;4.80;;;26.60;1.00;;;;;;5144345;27;20169;-81
2022/07/25 01:38:47;;;;;;;8.13;5.30;;;26.70;1.00;;;;;;5137928;27;20166;-83
2022/07/25 01:41:13;;;;;;;8.37;5.40;;;26.60;99.90;;;;;;5137041;27;20237;-81
2022/07/25 01:43:39;;;;;;;6.00;5.40;;;26.50;1.00;;;;;;5136815;27;20217;-82
2022/07/25 01:46:05;;;;;;;7.00;5.20;;;26.20;1.00;;;;;;5118647;27;20178;-81
2022/07/25 01:48:30;;;;;;;7.17;5.10;;;26.10;96.30;;;;;;5137023;27;20175;-81
2022/07/25 01:50:56;;;;;;;6.27;5.40;;;25.90;1.00;;;;;;5136696;27;20205;-81
2022/07/25 01:53:23;;;;;;;8.53;5.50;;;25.90;1.00;;;;;;5118289;27;20270;-82
2022/07/25 01:55:49;;;;;;;6.50;5.40;;;25.90;12.90;;;;;;5119528;27;20178;-82
2022/07/25 01:58:15;;;;;;;9.67;5.57;;;25.70;99.90;;;;;;5118537;27;20261;-82
2022/07/25 02:00:40;;;;;;;7.80;5.60;;;25.60;1.00;;;;;;5136178;27;20598;-82
2022/07/25 02:05:50;;;;;;;7.77;5.67;;;25.50;1.00;;;;;;5137272;27;20534;-83
2022/07/25 02:08:16;;;;;;;6.77;5.10;;;25.30;25.90;;;;;;5137223;27;20170;-82
2022/07/25 02:10:42;;;;;;;8.53;5.87;;;25.20;99.90;;;;;;5117045;27;20245;-82
2022/07/25 02:13:07;;;;;;;6.30;5.67;;;25.10;99.90;;;;;;5136087;27;20166;-82
2022/07/25 02:15:34;;;;;;;7.57;5.50;;;25.10;99.90;;;;;;5119867;27;20269;-81
2022/07/25 02:18:00;;;;;;;6.53;5.90;;;25.10;99.90;;;;;;5137391;27;20183;-82
2022/07/25 02:20:27;;;;;;;8.33;5.93;;;25.00;99.90;;;;;;5119622;27;20194;-82
2022/07/25 02:22:52;;;;;;;7.43;6.03;;;24.90;99.90;;;;;;5135926;27;20253;-82
2022/07/25 02:25:18;;;;;;;7.63;6.20;;;24.90;99.90;;;;;;5117152;27;20261;-82
2022/07/25 02:27:44;;;;;;;7.40;5.93;;;25.00;99.90;;;;;;5117235;27;20260;-82
2022/07/25 02:30:10;;;;;;;7.20;6.27;;;24.90;99.90;;;;;;5135951;27;20231;-82
2022/07/25 02:32:36;;;;;;;6.90;5.90;;;24.80;99.90;;;;;;5132147;27;20201;-79
2022/07/25 02:35:01;;;;;;;6.80;5.80;;;24.90;99.90;;;;;;5158744;27;20150;-80
2022/07/25 02:37:27;;;;;;;8.00;6.20;;;24.80;99.90;;;;;;5158063;27;20187;-82
2022/07/25 02:39:53;;;;;;;7.93;6.37;;;24.80;99.90;;;;;;5139836;27;20166;-82
2022/07/25 02:42:19;;;;;;;6.77;5.83;;;24.80;99.90;;;;;;5157875;27;20174;-81
2022/07/25 02:44:46;;;;;;;8.03;5.93;;;24.70;99.90;;;;;;5130377;27;20274;-83
2022/07/25 02:47:11;;;;;;;8.77;5.53;;;24.60;1.00;;;;;;5147995;27;20208;-81
2022/07/25 02:49:41;;;;;;;8.30;6.00;;;24.60;1.00;;;;;;5119505;27;20622;-82
2022/07/25 02:52:07;;;;;;;8.73;6.23;;;24.50;1.00;;;;;;5117244;27;20237;-82
2022/07/25 02:54:32;;;;;;;6.93;6.13;;;24.50;1.00;;;;;;5137292;27;20166;-82
2022/07/25 02:56:58;;;;;;;9.07;6.83;;;24.50;1.00;;;;;;5136596;27;20646;-82
2022/07/25 02:59:24;;;;;;;9.07;5.80;;;24.50;1.00;;;;;;5136166;27;20170;-81
2022/07/25 03:01:50;;;;;;;11.33;6.00;;;24.60;1.00;;;;;;5117711;27;20170;-81
2022/07/25 03:04:16;;;;;;;6.67;6.03;;;24.60;1.00;;;;;;5136548;27;20263;-81
2022/07/25 03:06:42;;;;;;;7.83;6.27;;;24.60;1.00;;;;;;5118108;27;20174;-82
2022/07/25 03:09:07;;;;;;;8.27;6.00;;;24.60;1.00;;;;;;5135435;27;20177;-82
2022/07/25 03:11:33;;;;;;;6.97;6.27;;;24.50;1.00;;;;;;5116118;27;20289;-82
2022/07/25 03:13:59;;;;;;;6.97;6.23;;;24.40;1.00;;;;;;5116666;27;20640;-81
2022/07/25 03:16:25;;;;;;;7.43;6.30;;;24.40;1.00;;;;;;5117882;27;20190;-82
2022/07/25 03:18:51;;;;;;;7.83;6.73;;;24.40;1.00;;;;;;5135212;27;20756;-83
2022/07/25 03:21:17;;;;;;;7.43;6.03;;;24.50;1.00;;;;;;5134926;27;20167;-83
2022/07/25 03:23:43;;;;;;;7.83;5.83;;;24.50;1.00;;;;;;5116188;27;20162;-82
2022/07/25 03:26:08;;;;;;;8.37;5.87;;;24.70;1.00;;;;;;5137050;27;20173;-82
2022/07/25 03:28:34;;;;;;;7.87;6.03;;;24.70;99.90;;;;;;5117246;27;20193;-82
2022/07/25 03:31:00;;;;;;;7.83;5.80;;;24.80;99.90;;;;;;5135411;27;20210;-82
2022/07/25 03:33:26;;;;;;;8.90;5.83;;;24.80;1.00;;;;;;5116388;28;20174;-82
2022/07/25 03:35:52;;;;;;;7.93;6.00;;;24.60;1.00;;;;;;5118629;28;20218;-81
2022/07/25 03:38:18;;;;;;;8.33;5.97;;;24.60;1.00;;;;;;5135847;28;20170;-82
2022/07/25 03:40:43;;;;;;;8.53;6.07;;;24.50;1.00;;;;;;5134316;28;20544;-82
2022/07/25 03:43:09;;;;;;;9.67;6.93;;;24.30;1.00;;;;;;5134267;28;20174;-81
2022/07/25 03:45:35;;;;;;;7.00;6.40;;;24.20;1.00;;;;;;5115504;28;20173;-83
2022/07/25 03:48:01;;;;;;;10.93;6.90;;;24.00;1.00;;;;;;5115128;28;20189;-82
2022/07/25 03:50:27;;;;;;;7.67;6.77;;;23.70;1.00;;;;;;5115934;27;20238;-80
2022/07/25 03:52:52;;;;;;;7.67;6.17;;;23.60;1.00;;;;;;5120153;27;20689;-81
2022/07/25 03:55:18;;;;;;;8.90;6.70;;;23.60;1.00;;;;;;5144687;27;20244;-81
2022/07/25 03:57:44;;;;;;;12.37;6.57;;;23.70;1.00;;;;;;5139617;27;20756;-83
2022/07/25 04:00:11;;;;;;;10.87;6.50;;;23.70;1.00;;;;;;5154895;27;20206;-82
2022/07/25 04:02:37;;;;;;;7.47;6.30;;;23.70;1.00;;;;;;5162529;27;20176;-81
2022/07/25 04:05:05;;;;;;;6.67;6.07;;;23.60;1.00;;;;;;5137595;27;20178;-82
2022/07/25 04:07:31;;;;;;;9.67;6.10;;;23.70;1.00;;;;;;5132013;27;20181;-82
2022/07/25 04:10:30;;;;;;;7.03;5.90;;;23.70;1.00;;;;;;5139841;27;20225;-82
2022/07/25 04:12:58;;;;;;;6.20;4.87;;;23.70;1.00;;;;;;5138717;27;20247;-82
2022/07/25 04:15:29;;;;;;;9.87;5.50;;;23.60;1.00;;;;;;5141033;27;20200;-82
2022/07/25 04:17:54;;;;;;;6.17;4.10;;;23.60;1.00;;;;;;5139251;27;20250;-81
2022/07/25 04:20:21;;;;;;;8.30;5.30;;;23.50;99.90;;;;;;5142499;27;20214;-82
2022/07/25 04:22:47;;;;;;;5.67;4.33;;;23.40;1.00;;;;;;5145234;27;20183;-81
2022/07/25 04:25:12;;;;;;;5.40;4.30;;;23.40;99.90;;;;;;5160965;27;20175;-82
2022/07/25 04:27:38;;;;;;;8.07;4.67;;;23.40;99.90;;;;;;5162805;27;20173;-80
2022/07/25 04:30:07;;;;;;;9.37;5.17;;;23.40;1.00;;;;;;5143706;27;20216;-82
2022/07/25 04:32:36;;;;;;;6.70;5.03;;;23.40;1.00;;;;;;5141852;27;20165;-81
2022/07/25 04:38:27;;;;;;;9.20;3.93;;;23.40;99.90;;;;;;5140344;27;20159;-81
2022/07/25 04:40:52;;;;;;;8.87;4.37;;;23.10;99.90;;;;;;5120260;27;20527;-82
2022/07/25 04:43:19;;;;;;;7.47;4.23;;;23.00;1.00;;;;;;5119755;27;20175;-81
2022/07/25 04:45:46;;;;;;;6.67;4.40;;;23.00;1.00;;;;;;5122073;27;20221;-81
2022/07/25 04:48:12;;;;;;;5.57;4.13;;;22.90;1.00;;;;;;5140111;27;20265;-81
2022/07/25 04:50:37;;;;;;;7.53;3.87;;;22.80;1.00;;;;;;5155609;27;20199;-82
2022/07/25 04:53:04;;;;;;;6.23;3.60;;;22.70;1.00;;;;;;5161879;27;20154;-81
2022/07/25 04:55:31;;;;;;;5.37;3.93;;;22.60;1.00;;;;;;5142894;27;20274;-82
2022/07/25 04:57:57;;;;;;;5.23;3.40;;;22.70;1.00;;;;;;5159899;27;20168;-82
2022/07/25 05:00:26;;;;;;;5.60;3.10;;;22.60;1.00;;;;;;5127988;27;20226;-81
2022/07/25 05:03:20;;;;;;;6.87;3.57;;;22.50;1.00;;;;;;5140067;27;20186;-82
2022/07/25 05:05:46;;;;;;;5.13;3.23;;;22.50;1.00;;;;;;5121313;27;20167;-81
2022/07/25 05:08:11;;;;;;;7.10;3.30;;;22.40;1.00;;;;;;5139014;27;20175;-81
2022/07/25 05:10:37;;;;;;;4.23;2.43;;;22.20;1.00;;;;;;5129587;27;20186;-81
2022/07/25 05:13:03;;;;;;;7.00;2.80;;;22.10;1.00;;;;;;5161300;27;20176;-82
2022/07/25 05:15:28;;;;;;;5.47;3.00;;;22.00;1.00;;;;;;5142037;27;20171;-81
2022/07/25 05:17:54;;;;;;;4.40;2.80;;;22.00;1.00;;;;;;5161394;27;20163;-81
2022/07/25 05:20:20;;;;;;;5.17;3.17;;;22.00;1.00;;;;;;5159657;27;20189;-82
2022/07/25 05:22:52;;;;;;;5.60;3.20;;;22.10;1.00;;;;;;5145297;27;20165;-80
2022/07/25 05:25:18;;;;;;;4.97;2.70;;;22.10;1.00;;;;;;5130552;27;20194;-82
2022/07/25 05:27:51;;;;;;;4.60;2.70;;;22.00;1.00;;;;;;5139270;27;20625;-81
2022/07/25 05:30:33;;;;;;;4.67;2.50;;;21.90;1.00;;;;;;5119322;27;20514;-83
2022/07/25 05:32:58;;;;;;;4.27;2.43;;;21.90;1.00;;;;;;5119642;27;20237;-82
2022/07/25 05:35:24;;;;;;;5.17;2.30;;;21.90;1.00;;;;;;5152913;27;20205;-82
2022/07/25 05:37:52;;;;;;;4.23;2.40;;;21.80;1.00;;;;;;5137176;27;20181;-82
2022/07/25 05:40:18;;;;;;;5.10;2.37;;;21.70;1.00;;;;;;5138371;27;20193;-82
2022/07/25 05:42:44;;;;;;;6.03;2.70;;;21.80;1.00;;;;;;5137088;27;20173;-81
2022/07/25 05:45:10;;;;;;;8.27;3.00;;;21.80;1.00;;;;;;5137440;27;20161;-81
2022/07/25 05:47:36;;;;;;;5.30;2.13;;;21.90;1.00;;;;;;5136007;27;20191;-81
2022/07/25 05:50:02;;;;;;;6.73;2.60;;;21.80;1.00;;;;;;5134709;27;20173;-81
2022/07/25 05:52:28;;;;;;;7.40;2.97;;;21.80;1.00;;;;;;5135582;27;20215;-82
2022/07/25 05:54:54;;;;;;;6.50;2.90;;;21.70;1.00;;;;;;5132124;27;20549;-81
2022/07/25 05:57:19;;;;;;;9.03;2.70;;;21.70;1.00;;;;;;5118098;27;20176;-82
2022/07/25 05:59:45;;;;;;;7.87;2.60;;;21.70;1.00;;;;;;5136977;27;20294;-83
2022/07/25 06:02:11;;;;;;;6.87;2.80;;;21.70;1.00;;;;;;5119462;27;20179;-81
2022/07/25 06:04:36;;;;;;;8.53;2.60;;;21.80;1.00;;;;;;5122350;27;20178;-82
2022/07/25 06:07:03;;;;;;;4.87;2.60;;;21.90;1.00;;;;;;5139826;27;20535;-82
2022/07/25 06:09:30;;;;;;;5.50;3.07;;;21.80;1.00;;;;;;5119800;27;20189;-81
2022/07/25 06:11:56;;;;;;;7.63;2.30;;;21.80;1.00;;;;;;5122389;27;20209;-82
2022/07/25 06:14:22;;;;;;;4.50;2.40;;;21.80;1.00;;;;;;5138394;27;20596;-82
2022/07/25 06:16:49;;;;;;;7.33;2.50;;;21.90;1.00;;;;;;5120273;27;20185;-81
2022/07/25 06:19:14;;;;;;;5.50;2.67;;;22.00;1.00;;;;;;5118852;27;20693;-80
2022/07/25 06:21:40;;;;;;;5.83;2.47;;;22.20;1.00;;;;;;5136911;27;20166;-82
2022/07/25 06:24:06;;;;;;;6.60;2.60;;;22.20;1.00;;;;;;5138016;27;20316;-82
2022/07/25 06:26:32;;;;;;;4.37;2.30;;;22.20;1.00;;;;;;5120682;27;20169;-83
2022/07/25 06:28:57;;;;;;;5.93;2.77;;;22.20;1.00;;;;;;5137487;27;20162;-83
2022/07/25 06:31:23;;;;;;;5.37;2.50;;;21.90;1.00;;;;;;5136708;27;20221;-85
2022/07/25 06:33:49;;;;;;;7.40;2.63;;;21.70;1.00;;;;;;5138756;27;20653;-85
2022/07/25 06:36:15;;;;;;;10.17;2.60;;;21.60;1.00;;;;;;5139535;27;20640;-81
2022/07/25 06:38:41;;;;;;;4.47;2.47;;;21.70;1.00;;;;;;5138030;27;20169;-82
2022/07/25 06:41:06;;;;;;;5.47;2.73;;;21.70;1.00;;;;;;5137051;27;20168;-82
2022/07/25 06:43:32;;;;;;;3.93;2.30;;;21.90;1.00;;;;;;5159212;27;20169;-81
2022/07/25 06:45:58;;;;;;;5.73;2.90;;;21.90;1.00;;;;;;5159642;27;20240;-80
2022/07/25 06:48:23;;;;;;;6.23;2.80;;;21.80;1.00;;;;;;5135625;27;20184;-83
2022/07/25 06:50:50;;;;;;;5.23;2.80;;;21.60;1.00;;;;;;5124193;27;20205;-84
2022/07/25 06:53:16;;;;;;;3.83;2.50;;;21.60;1.00;;;;;;5133721;27;20170;-82
2022/07/25 06:55:42;;;;;;;4.37;2.60;;;21.70;1.00;;;;;;5140948;27;20184;-82
2022/07/25 06:58:07;;;;;;;6.77;2.73;;;21.70;1.00;;;;;;5127608;27;20181;-83
2022/07/25 07:00:45;;;;;;;4.07;2.40;;;21.70;1.00;;;;;;5140417;27;20255;-83
2022/07/25 07:03:11;;;;;;;6.53;2.60;;;21.70;1.00;;;;;;5136238;27;20617;-82
2022/07/25 07:05:39;;;;;;;5.87;2.67;;;21.50;1.00;;;;;;5119545;27;20283;-82
2022/07/25 07:08:10;;;;;;;4.53;2.57;;;21.50;1.00;;;;;;5137000;27;20165;-81
2022/07/25 07:10:39;;;;;;;4.77;2.87;;;21.50;1.00;;;;;;5138581;27;20209;-80
2022/07/25 07:13:14;;;;;;;5.57;2.20;;;21.70;1.00;;;;;;5123010;27;20524;-81
2022/07/25 07:15:45;;;;;;;4.97;2.23;;;21.80;1.00;;;;;;5155958;27;20171;-81
2022/07/25 07:18:11;;;;;;;5.60;2.10;;;21.90;1.00;;;;;;5124387;27;20158;-81
2022/07/25 07:20:42;;;;;;;6.33;2.17;;;22.20;1.00;;;;;;5139231;27;20209;-80
2022/07/25 07:23:11;;;;;;;5.93;2.60;;;22.40;1.00;;;;;;5136448;27;20170;-81
2022/07/25 07:25:37;;;;;;;5.00;2.57;;;22.40;1.00;;;;;;5136554;27;20214;-81
2022/07/25 07:28:03;;;;;;;4.63;2.40;;;22.40;1.00;;;;;;5117718;28;20702;-82
2022/07/25 07:30:35;;;;;;;5.30;2.83;;;22.20;1.00;;;;;;5135549;27;20190;-82
2022/07/25 07:33:00;;;;;;;6.30;2.70;;;21.90;1.00;;;;;;5117032;27;20170;-85
2022/07/25 07:35:26;;;;;;;5.83;3.00;;;22.00;1.00;;;;;;5118114;28;20277;-82
2022/07/25 07:37:53;;;;;;;10.53;2.93;;;22.10;1.00;;;;;;5117778;28;20264;-82
2022/07/25 07:40:19;;;;;;;4.47;2.47;;;22.20;1.00;;;;;;5118501;28;20170;-81
2022/07/25 07:42:48;;;;;;;5.03;2.50;;;22.30;1.00;;;;;;5142201;28;20174;-83
2022/07/25 07:45:16;;;;;;;3.73;2.10;;;22.40;1.00;;;;;;5131868;28;20184;-82
2022/07/25 07:47:42;;;;;;;4.50;2.17;;;22.40;1.00;;;;;;5119755;28;20186;-83
2022/07/25 07:50:10;;;;;;;5.47;2.20;;;22.60;1.00;;;;;;5121737;28;20533;-83
2022/07/25 07:52:36;;;;;;;4.90;1.90;;;22.70;1.00;;;;;;5125152;28;20175;-83
2022/07/25 07:57:47;;;;;;;4.87;2.33;;;22.40;1.00;;;;;;5158575;27;20221;-84
2022/07/25 08:00:14;;;;;;;4.87;2.37;;;22.40;1.00;;;;;;5132813;28;20616;-84
2022/07/25 08:02:45;;;;;;;7.50;2.00;;;22.50;1.00;;;;;;5128753;28;20182;-83
2022/07/25 08:05:30;;;;;;;5.73;1.80;;;22.50;1.00;;;;;;5103456;28;20181;-83
2022/07/25 08:07:57;;;;;;;3.57;1.97;;;22.50;1.00;;;;;;5118545;28;20156;-84
2022/07/25 08:10:29;;;;;;;4.30;2.03;;;22.50;1.00;;;;;;5119041;28;20671;-84
2022/07/25 08:12:56;;;;;;;6.27;2.23;;;22.50;1.00;;;;;;5118409;28;20532;-85
2022/07/25 08:15:22;;;;;;;5.00;1.77;;;22.50;1.00;;;;;;5119945;28;20183;-82
2022/07/25 08:17:49;;;;;;;5.97;1.57;;;22.70;1.00;;;;;;5137163;28;20179;-84
2022/07/25 08:20:21;;;;;;;4.63;2.17;;;22.90;1.00;;;;;;5130029;28;20232;-83
2022/07/25 08:22:48;;;;;;;3.10;1.90;;;23.00;1.00;;;;;;5120802;28;20158;-83
2022/07/25 08:25:19;;;;;;;5.00;2.13;;;22.90;1.00;;;;;;5135148;28;20178;-83
2022/07/25 08:28:25;;;;;;;3.53;2.00;;;22.70;1.00;;;;;;5114767;28;20167;-83
2022/07/25 08:30:57;;;;;;;4.53;2.13;;;22.60;1.00;;;;;;5115796;28;20203;-84
2022/07/25 08:33:25;;;;;;;4.97;1.90;;;22.80;1.00;;;;;;5097301;28;20596;-84
2022/07/25 08:35:54;;;;;;;5.20;1.83;;;22.70;1.00;;;;;;5102029;28;20184;-82
2022/07/25 08:38:22;;;;;;;4.57;2.10;;;22.80;1.00;;;;;;5119239;28;20515;-83
2022/07/25 08:40:48;;;;;;;5.83;2.23;;;23.10;1.00;;;;;;5119942;28;20596;-83
2022/07/25 08:43:15;;;;;;;4.73;2.10;;;23.10;1.00;;;;;;5101331;28;20183;-83
2022/07/25 08:45:46;;;;;;;5.70;2.50;;;23.20;1.00;;;;;;5119475;27;20361;-82
2022/07/25 08:48:15;;;;;;;6.70;2.10;;;23.30;1.00;;;;;;5113325;27;20192;-82
2022/07/25 08:50:42;;;;;;;3.83;2.33;;;23.20;1.00;;;;;;5140863;27;20199;-83
2022/07/25 08:53:07;;;;;;;3.80;1.97;;;23.20;1.00;;;;;;5123880;28;20168;-82
2022/07/25 08:55:36;;;;;;;4.67;1.93;;;23.10;1.00;;;;;;5100594;28;20179;-83
2022/07/25 08:58:02;;;;;;;4.13;1.80;;;23.10;1.00;;;;;;5100520;28;20262;-82
2022/07/25 09:00:28;;;;;;;4.47;1.83;;;23.20;1.00;;;;;;5099674;28;20632;-84
2022/07/25 09:03:02;;;;;;;3.83;1.80;;;23.40;1.00;;;;;;5100069;28;20169;-83
2022/07/25 09:05:30;;;;;;;4.23;1.80;;;23.50;1.00;;;;;;5135043;27;20665;-83
2022/07/25 09:08:04;;;;;;;2.80;1.60;;;23.50;1.00;;;;;;5119794;27;20168;-82
2022/07/25 09:10:30;;;;;;;4.03;1.80;;;23.80;1.00;;;;;;5117802;27;20183;-82
2022/07/25 09:12:58;;;;;;;3.73;1.70;;;23.70;1.00;;;;;;5109110;28;20235;-83
2022/07/25 09:15:32;;;;;;;3.60;1.60;;;23.90;1.00;;;;;;5101056;27;20163;-82
2022/07/25 09:18:06;;;;;;;3.83;1.93;;;24.20;1.00;;;;;;5121092;28;20186;-83
2022/07/25 09:20:46;;;;;;;4.10;1.73;;;24.30;1.00;;;;;;5159015;27;20185;-80
2022/07/25 09:23:33;;;;;;;4.00;1.70;;;24.30;1.00;;;;;;5134617;27;20172;-82
2022/07/25 09:26:02;;;;;;;5.83;2.17;;;24.40;1.00;;;;;;5122192;28;20231;-81
2022/07/25 09:28:28;;;;;;;4.63;1.53;;;24.40;1.00;;;;;;5124165;27;20177;-82
2022/07/25 09:30:59;;;;;;;3.13;1.60;;;24.50;1.00;;;;;;5111754;27;20202;-82
2022/07/25 09:33:27;;;;;;;5.97;1.73;;;24.60;1.00;;;;;;5121490;27;20222;-82
2022/07/25 09:35:56;;;;;;;2.70;1.67;;;24.70;1.00;;;;;;5099380;28;20170;-81
2022/07/25 09:38:23;;;;;;;5.73;2.20;;;24.70;1.00;;;;;;5099887;28;20691;-82
2022/07/25 09:40:57;;;;;;;3.30;1.90;;;24.50;1.00;;;;;;5099472;28;20537;-83
2022/07/25 09:43:35;;;;;;;7.57;2.10;;;24.50;1.00;;;;;;5103874;28;20623;-85
2022/07/25 09:46:01;;;;;;;5.30;2.20;;;24.60;1.00;;;;;;5121088;28;20220;-82
2022/07/25 09:48:26;;;;;;;5.67;2.27;;;24.50;1.00;;;;;;5133890;28;20197;-82
2022/07/25 09:50:54;;;;;;;4.60;2.40;;;24.50;1.00;;;;;;5115024;27;20202;-84
2022/07/25 09:53:39;;;;;;;4.33;2.07;;;24.70;1.00;;;;;;5100980;28;20178;-84
2022/07/25 09:56:07;;;;;;;5.23;2.17;;;24.80;1.00;;;;;;5101453;28;20173;-84
2022/07/25 09:58:33;;;;;;;5.67;2.20;;;24.70;1.00;;;;;;5102287;28;20826;-82
2022/07/25 10:01:06;;;;;;;7.00;2.10;;;24.60;1.00;;;;;;5110863;28;20179;-85
2022/07/25 10:03:57;;;;;;;5.30;2.40;;;24.80;1.00;;;;;;5118816;27;20200;-83
2022/07/25 10:07:08;;;;;;;3.40;1.97;;;24.70;1.00;;;;;;5138301;28;20167;-83
2022/07/25 10:09:45;;;;;;;6.53;2.50;;;25.00;1.00;;;;;;5111255;28;20190;-83
2022/07/25 10:12:13;;;;;;;5.27;2.23;;;24.80;1.00;;;;;;5118877;28;20291;-84
2022/07/25 10:15:07;;;;;;;4.50;2.33;;;24.70;1.00;;;;;;5120530;28;20534;-83
2022/07/25 10:17:35;;;;;;;4.77;2.30;;;25.00;1.00;;;;;;5116942;28;20179;-84
2022/07/25 10:20:03;;;;;;;4.77;2.17;;;24.70;1.00;;;;;;5126464;27;20192;-85
2022/07/25 10:22:43;;;;;;;5.57;2.17;;;24.50;1.00;;;;;;5140826;27;20184;-83
2022/07/25 10:25:18;;;;;;;7.63;2.60;;;24.60;1.00;;;;;;5120226;27;20517;-84
2022/07/25 10:27:47;;;;;;;4.93;2.60;;;24.50;1.00;;;;;;5119084;27;20582;-82
2022/07/25 10:30:27;;;;;;;6.37;2.30;;;24.40;1.00;;;;;;5148410;27;20181;-82
2022/07/25 10:32:57;;;;;;;5.47;2.50;;;24.50;1.00;;;;;;5136585;27;20181;-84
2022/07/25 10:35:25;;;;;;;5.13;2.50;;;24.40;1.00;;;;;;5120123;27;20178;-84
2022/07/25 10:37:53;;;;;;;6.83;2.53;;;24.40;1.00;;;;;;5132864;27;20576;-85
2022/07/25 10:40:42;;;;;;;7.03;2.47;;;24.40;1.00;;;;;;5115098;27;20207;-83
2022/07/25 10:43:19;;;;;;;8.87;2.97;;;24.50;1.00;;;;;;5124191;27;20229;-82
2022/07/25 10:45:57;;;;;;;6.47;2.47;;;24.20;1.00;;;;;;5138180;27;20181;-82
2022/07/25 10:48:28;;;;;;;4.27;2.10;;;24.30;1.00;;;;;;5101301;28;20234;-82
2022/07/25 10:51:03;;;;;;;7.17;2.20;;;24.30;1.00;;;;;;5117349;28;20276;-84
2022/07/25 10:53:42;;;;;;;6.20;2.40;;;24.10;1.00;;;;;;5097099;28;20171;-84
2022/07/25 10:56:18;;;;;;;6.07;2.47;;;24.00;1.00;;;;;;5097709;28;20162;-83
2022/07/25 10:58:46;;;;;;;5.77;2.57;;;24.00;1.00;;;;;;5095137;28;20169;-83
2022/07/25 11:01:15;;;;;;;3.10;1.90;;;24.10;1.00;;;;;;5095307;28;20651;-83
2022/07/25 11:03:44;;;;;;;6.43;2.30;;;24.00;1.00;;;;;;5096171;28;20551;-83
2022/07/25 11:06:12;;;;;;;5.80;2.70;;;23.90;1.00;;;;;;5115794;28;20173;-84
2022/07/25 11:08:38;;;;;;;6.73;2.23;;;23.60;1.00;;;;;;5098476;28;20173;-82
2022/07/25 11:11:03;;;;;;;8.00;2.77;;;23.60;1.00;;;;;;5115057;28;20203;-82
2022/07/25 11:13:29;;;;;;;8.37;2.60;;;23.40;1.00;;;;;;5099247;28;20178;-83
2022/07/25 11:15:57;;;;;;;5.00;2.30;;;23.50;1.00;;;;;;5100259;28;20244;-83
2022/07/25 11:18:32;;;;;;;6.57;2.90;;;23.60;1.00;;;;;;5081893;28;20559;-84
2022/07/25 11:20:59;;;;;;;6.17;2.50;;;23.60;1.00;;;;;;5104854;28;20196;-82
2022/07/25 11:23:25;;;;;;;7.33;2.20;;;23.80;1.00;;;;;;5142333;27;20235;-83
2022/07/25 11:25:50;;;;;;;4.63;2.33;;;23.80;1.00;;;;;;5118000;28;20198;-83
2022/07/25 11:28:16;;;;;;;4.67;1.97;;;23.60;1.00;;;;;;5124047;28;20186;-83
2022/07/25 11:30:43;;;;;;;6.10;2.40;;;23.40;1.00;;;;;;5140268;27;20196;-83
2022/07/25 11:33:15;;;;;;;7.57;2.57;;;23.40;1.00;;;;;;5135756;27;20632;-81
2022/07/25 11:35:42;;;;;;;7.67;2.37;;;23.30;1.00;;;;;;5110435;28;20252;-82
2022/07/25 11:38:13;;;;;;;6.97;2.90;;;23.30;1.00;;;;;;5113979;28;20182;-81
2022/07/25 11:40:43;;;;;;;5.17;2.47;;;23.20;1.00;;;;;;5117897;28;20315;-83
2022/07/25 11:43:22;;;;;;;8.20;3.00;;;23.30;1.00;;;;;;5147993;27;20173;-83
2022/07/25 11:46:07;;;;;;;8.20;2.83;;;23.10;1.00;;;;;;5165680;27;20146;-83
2022/07/25 11:48:38;;;;;;;7.77;2.50;;;23.10;1.00;;;;;;5179909;27;20154;-82
2022/07/25 11:51:14;;;;;;;5.77;2.30;;;23.20;1.00;;;;;;5159549;27;20193;-82
2022/07/25 11:53:44;;;;;;;5.63;2.40;;;23.30;1.00;;;;;;5153694;27;20161;-83
2022/07/25 11:56:19;;;;;;;5.73;2.53;;;23.20;1.00;;;;;;5160561;27;20163;-82
2022/07/25 11:59:41;;;;;;;6.90;2.20;;;23.20;1.00;;;;;;5137170;27;20225;-82
2022/07/25 12:02:06;;;;;;;6.37;2.20;;;23.30;1.00;;;;;;5135755;27;20173;-83
2022/07/25 12:04:32;;;;;;;5.67;2.23;;;23.30;1.00;;;;;;5129676;28;20708;-83
2022/07/25 12:07:03;;;;;;;6.27;2.43;;;23.20;1.00;;;;;;5144906;28;20173;-82
2022/07/25 12:09:30;;;;;;;6.30;2.17;;;23.40;1.00;;;;;;5138223;27;20192;-84
2022/07/25 12:12:02;;;;;;;6.83;2.80;;;23.70;1.00;;;;;;5116323;28;20204;-84
2022/07/25 12:14:28;;;;;;;7.03;2.13;;;23.90;1.00;;;;;;5122981;27;20627;-84
2022/07/25 12:16:53;;;;;;;5.70;2.20;;;24.10;1.00;;;;;;5122636;27;20192;-83
2022/07/25 12:19:21;;;;;;;5.60;2.17;;;24.20;1.00;;;;;;5127099;27;20195;-85
2022/07/25 12:21:46;;;;;;;6.67;2.30;;;24.20;1.00;;;;;;5125582;27;20219;-84
2022/07/25 12:24:13;;;;;;;7.77;2.20;;;24.10;1.00;;;;;;5125992;27;20561;-85
2022/07/25 12:26:39;;;;;;;6.10;2.53;;;24.00;1.00;;;;;;5122596;27;20173;-85
2022/07/25 12:29:06;;;;;;;5.23;2.40;;;23.90;1.00;;;;;;5138310;27;20167;-77
2022/07/25 12:31:31;;;;;;;7.10;2.57;;;23.90;1.00;;;;;;5140394;27;20210;-83
2022/07/25 12:33:58;;;;;;;5.17;2.00;;;23.70;1.00;;;;;;5149857;27;20156;-84
2022/07/25 12:36:24;;;;;;;6.07;2.43;;;23.60;1.00;;;;;;5161643;27;20219;-82
2022/07/25 12:38:50;;;;;;;5.97;2.20;;;23.50;1.00;;;;;;5130244;27;20184;-83
2022/07/25 12:41:21;;;;;;;12.47;2.40;;;23.60;1.00;;;;;;5180435;27;20163;-83
2022/07/25 12:43:52;;;;;;;7.83;2.20;;;23.80;1.00;;;;;;5162325;27;20250;-83
2022/07/25 12:46:27;;;;;;;6.53;2.50;;;23.80;1.00;;;;;;5141984;27;20181;-84
2022/07/25 12:48:53;;;;;;;7.37;2.73;;;24.10;1.00;;;;;;5128391;27;20180;-84
2022/07/25 12:51:19;;;;;;;6.33;2.47;;;24.20;1.00;;;;;;5128141;27;20470;-83
2022/07/25 12:53:45;;;;;;;6.97;2.47;;;24.30;1.00;;;;;;5135660;27;20157;-84
2022/07/25 12:56:11;;;;;;;4.80;2.20;;;24.50;99.90;;;;;;5122633;28;20181;-82
2022/07/25 12:58:37;;;;;;;4.43;2.00;;;24.40;99.90;;;;;;5121801;28;20192;-84
2022/07/25 13:01:04;;;;;;;7.73;2.17;;;24.40;99.90;;;;;;5120704;28;20181;-83
2022/07/25 13:03:36;;;;;;;7.60;2.13;;;24.10;99.90;;;;;;5124591;28;20165;-84
2022/07/25 13:06:05;;;;;;;5.50;2.30;;;23.90;99.90;;;;;;5119382;28;20172;-83
2022/07/25 13:08:32;;;;;;;6.80;2.00;;;23.80;99.90;;;;;;5117797;28;20190;-83
2022/07/25 13:10:57;;;;;;;8.50;2.20;;;23.90;99.90;;;;;;5098756;28;20212;-84